Fremont, Ohio
Current Conditions -  °F | °C
As of 5:13 AM on Sunday 23 Nov 2014 (Local Time) from KPCW Reporting Station
Light Rain Light Rain  
Wind Chill: 42°   Ceiling: 4900
Heat Index: 46°   Visibility: 10mi
Dew Point: 43°   Wind: 9mph
Humidity: 87%   Direction: 200°SSW
Pressure: 29.98"   Gusts: NA
Location:  41.35°N, 83.11°W
Report Text: KPCW 231013Z AUTO 20008KT 10SM -RA BKN049 OVC060 08/06 A2998 RMK AO2 $
Loading
Personal Weather Stations






























Interactive Weather Map New forecast layout! Learn more

10-Day Weather Forecast

Advertisements
Track Severe Weather on mobile